createdAt,value
2018-12-25T00:00:10.890Z,2.3
2018-12-25T00:05:01.036Z,2.2
2018-12-25T00:10:00.876Z,2.2
2018-12-25T00:15:00.955Z,2.5
2018-12-25T00:25:01.124Z,3.1
2018-12-25T00:30:00.885Z,3.2
2018-12-25T00:35:12.963Z,3.4
2018-12-25T00:40:00.885Z,3.2
2018-12-25T00:45:00.949Z,3.1
2018-12-25T00:50:00.891Z,2.9
2018-12-25T00:55:01.238Z,3.0
2018-12-25T01:00:00.930Z,3.0
2018-12-25T01:05:01.047Z,3.2
2018-12-25T01:10:00.894Z,3.4
2018-12-25T01:15:01.024Z,3.4
2018-12-25T01:20:00.890Z,3.4
2018-12-25T01:25:00.961Z,3.4
2018-12-25T01:30:00.896Z,3.2
2018-12-25T01:35:01.062Z,3.1
2018-12-25T01:40:00.995Z,3.4
2018-12-25T01:45:01.019Z,3.3
2018-12-25T01:50:00.940Z,3.1
2018-12-25T02:00:06.006Z,3.0
2018-12-25T02:05:01.070Z,2.9
2018-12-25T02:10:00.928Z,3.1
2018-12-25T02:15:01.038Z,3.0
2018-12-25T02:20:01.111Z,3.3
2018-12-25T02:25:00.980Z,3.2
2018-12-25T02:30:00.914Z,3.2
2018-12-25T02:35:01.081Z,2.8
2018-12-25T02:40:00.948Z,2.8
2018-12-25T02:45:01.427Z,2.8
2018-12-25T02:50:07.237Z,3.0
2018-12-25T02:55:05.991Z,2.9
2018-12-25T03:00:00.983Z,3.0
2018-12-25T03:05:00.946Z,3.6
2018-12-25T03:10:00.965Z,3.4
2018-12-25T03:15:01.151Z,3.4
2018-12-25T03:20:02.211Z,3.7
2018-12-25T03:30:01.272Z,3.1
2018-12-25T03:35:00.988Z,3.3
2018-12-25T03:40:00.936Z,3.0
2018-12-25T03:45:01.281Z,3.0
2018-12-25T03:50:11.247Z,3.2
2018-12-25T03:55:01.061Z,3.6
2018-12-25T04:00:00.925Z,3.6
2018-12-25T04:05:01.092Z,3.9
2018-12-25T04:10:00.942Z,3.6
2018-12-25T04:15:01.369Z,3.2
2018-12-25T04:20:02.202Z,2.9
2018-12-25T04:25:01.003Z,2.8
2018-12-25T04:30:05.954Z,3.1
2018-12-25T04:35:01.003Z,3.5
2018-12-25T04:40:01.043Z,3.4
2018-12-25T04:45:01.075Z,3.4
2018-12-25T04:55:01.038Z,3.0
2018-12-25T05:00:05.964Z,3.0
2018-12-25T05:05:01.053Z,3.6
2018-12-25T05:10:00.988Z,3.8
2018-12-25T05:15:00.987Z,4.0
2018-12-25T05:20:00.989Z,3.5
2018-12-25T05:25:01.248Z,3.1
2018-12-25T05:30:00.947Z,3.0
2018-12-25T05:35:01.132Z,3.4
2018-12-25T05:40:00.962Z,3.3
2018-12-25T05:45:01.020Z,3.7
2018-12-25T05:50:00.957Z,3.9
2018-12-25T06:00:01.026Z,3.8
2018-12-25T06:05:01.067Z,4.0
2018-12-25T06:10:00.998Z,3.6
2018-12-25T06:15:00.963Z,3.8
2018-12-25T06:20:01.000Z,3.5
2018-12-25T06:25:01.059Z,3.1
2018-12-25T06:30:01.527Z,2.8
2018-12-25T06:35:00.961Z,3.3
2018-12-25T06:40:00.991Z,3.2
2018-12-25T06:45:01.036Z,3.4
2018-12-25T06:50:00.971Z,3.2
2018-12-25T06:55:01.094Z,3.5
2018-12-25T07:00:01.001Z,3.4
2018-12-25T07:05:01.030Z,3.5
2018-12-25T07:15:01.041Z,3.9
2018-12-25T07:20:05.984Z,4.2
2018-12-25T07:25:07.226Z,4.3
2018-12-25T07:30:00.975Z,4.4
2018-12-25T07:35:01.102Z,4.5
2018-12-25T07:40:00.975Z,4.3
2018-12-25T07:45:00.979Z,3.8
2018-12-25T07:50:00.992Z,3.9
2018-12-25T07:55:01.043Z,4.2
2018-12-25T08:00:00.983Z,4.2
2018-12-25T08:05:01.180Z,4.0
2018-12-25T08:10:00.980Z,4.1
2018-12-25T08:15:01.049Z,4.0
2018-12-25T08:20:06.671Z,3.5
2018-12-25T08:30:01.065Z,3.7
2018-12-25T08:35:01.191Z,3.8
2018-12-25T08:40:00.997Z,3.7
2018-12-25T08:45:01.067Z,4.0
2018-12-25T08:50:00.997Z,4.7
2018-12-25T08:55:01.062Z,4.8
2018-12-25T09:00:01.018Z,4.9
2018-12-25T09:05:01.133Z,5.5
2018-12-25T09:10:00.999Z,5.6
2018-12-25T09:15:01.076Z,5.1
2018-12-25T09:20:01.003Z,5.3
2018-12-25T09:25:06.089Z,5.8
2018-12-25T09:30:06.014Z,5.8
2018-12-25T09:35:01.335Z,5.5
2018-12-25T09:45:06.085Z,5.3
2018-12-25T09:50:01.020Z,4.7
2018-12-25T09:55:01.139Z,4.0
2018-12-25T10:00:00.988Z,3.6
2018-12-25T10:05:06.214Z,3.2
2018-12-25T10:15:01.085Z,3.0
2018-12-25T10:20:01.025Z,3.2
2018-12-25T10:25:01.090Z,4.4
2018-12-25T10:30:00.996Z,4.8
2018-12-25T10:35:01.449Z,5.0
2018-12-25T10:40:01.027Z,5.2
2018-12-25T10:45:01.089Z,5.2
2018-12-25T10:55:06.228Z,4.5
2018-12-25T11:00:11.043Z,4.6
2018-12-25T11:05:01.159Z,4.8
2018-12-25T11:10:01.003Z,4.8
2018-12-25T11:15:01.102Z,4.4
2018-12-25T11:20:01.070Z,4.0
2018-12-25T11:25:01.167Z,3.5
2018-12-25T11:30:01.012Z,3.2
2018-12-25T11:35:01.177Z,2.9
2018-12-25T11:40:01.043Z,2.9
2018-12-25T11:45:06.183Z,2.9
2018-12-25T11:50:01.047Z,5.3
2018-12-25T11:55:01.321Z,5.4
2018-12-25T12:00:01.077Z,5.8
2018-12-25T12:05:01.179Z,6.6
2018-12-25T12:10:01.119Z,6.9
2018-12-25T12:15:01.187Z,4.4
2018-12-25T12:20:01.054Z,4.1
2018-12-25T12:25:01.250Z,4.1
2018-12-25T12:30:01.058Z,3.4
2018-12-25T12:35:01.054Z,3.4
2018-12-25T12:40:01.101Z,3.5
2018-12-25T12:45:02.228Z,3.6
2018-12-25T12:50:01.062Z,3.8
2018-12-25T12:55:01.217Z,3.7
2018-12-25T13:00:01.133Z,3.8
2018-12-25T13:05:01.070Z,4.1
2018-12-25T13:10:01.071Z,4.0
2018-12-25T13:15:01.199Z,3.8
2018-12-25T13:20:01.058Z,3.5
2018-12-25T13:25:06.142Z,3.0
2018-12-25T13:30:01.075Z,3.0
2018-12-25T13:35:01.815Z,3.2
2018-12-25T13:45:01.213Z,3.6
2018-12-25T13:50:01.091Z,4.0
2018-12-25T13:55:01.500Z,4.0
2018-12-25T14:00:06.787Z,4.1
2018-12-25T14:05:01.142Z,3.7
2018-12-25T14:10:06.086Z,3.3
2018-12-25T14:15:01.209Z,3.3
2018-12-25T14:20:01.085Z,3.2
2018-12-25T14:25:01.084Z,2.8
2018-12-25T14:30:01.285Z,3.1
2018-12-25T14:40:01.334Z,3.3
2018-12-25T14:45:01.149Z,3.3
2018-12-25T14:50:11.774Z,3.7
2018-12-25T14:55:01.093Z,4.3
2018-12-25T15:00:01.103Z,5.0
2018-12-25T15:05:01.095Z,4.8
2018-12-25T15:10:07.188Z,4.8
2018-12-25T15:15:01.095Z,4.8
2018-12-25T15:20:01.094Z,4.5
2018-12-25T15:25:01.212Z,6.4
2018-12-25T15:30:01.096Z,7.6
2018-12-25T15:35:01.162Z,9.0
2018-12-25T15:40:01.097Z,9.7
2018-12-25T15:45:01.161Z,11.2
2018-12-25T15:50:01.103Z,9.8
2018-12-25T15:55:01.101Z,9.1
2018-12-25T16:00:01.111Z,8.3
2018-12-25T16:05:01.104Z,8.6
2018-12-25T16:10:01.105Z,7.5
2018-12-25T16:15:01.173Z,7.7
2018-12-25T16:20:01.263Z,8.0
2018-12-25T16:25:01.117Z,7.8
2018-12-25T16:30:06.121Z,8.0
2018-12-25T16:35:01.157Z,8.6
2018-12-25T16:40:01.162Z,8.4
2018-12-25T16:45:01.174Z,8.6
2018-12-25T16:50:01.222Z,9.0
2018-12-25T16:55:01.213Z,8.6
2018-12-25T17:00:01.121Z,8.2
2018-12-25T17:05:01.184Z,8.2
2018-12-25T17:10:06.139Z,7.8
2018-12-25T17:15:01.189Z,8.0
2018-12-25T17:20:01.159Z,8.0
2018-12-25T17:25:01.244Z,7.9
2018-12-25T17:30:01.127Z,7.8
2018-12-25T17:35:01.232Z,7.7
2018-12-25T17:45:01.194Z,7.2
2018-12-25T17:50:01.128Z,7.2
2018-12-25T17:55:01.262Z,7.0
2018-12-25T18:00:01.130Z,7.2
2018-12-25T18:05:01.233Z,6.8
2018-12-25T18:10:01.137Z,6.6
2018-12-25T18:15:01.231Z,6.6
2018-12-25T18:25:01.171Z,6.3
2018-12-25T18:30:01.175Z,6.9
2018-12-25T18:35:01.183Z,6.7
2018-12-25T18:40:01.328Z,6.7
2018-12-25T18:45:01.211Z,6.4
2018-12-25T18:50:01.256Z,5.9
2018-12-25T18:55:01.305Z,5.7
2018-12-25T19:00:06.171Z,6.1
2018-12-25T19:05:01.183Z,6.0
2018-12-25T19:15:01.765Z,6.6
2018-12-25T19:20:01.154Z,6.7
2018-12-25T19:40:00.635Z,4.0
2018-12-25T19:45:00.716Z,4.0
2018-12-25T19:50:00.527Z,4.3
2018-12-25T19:55:00.499Z,5.0
2018-12-25T20:00:00.819Z,4.9
2018-12-25T20:05:01.615Z,5.5
2018-12-25T20:10:00.655Z,6.2
2018-12-25T20:15:00.669Z,6.6
2018-12-25T20:20:00.619Z,6.5
2018-12-25T20:40:01.383Z,10.4
2018-12-25T21:00:00.445Z,7.0
2018-12-25T21:20:00.791Z,10.0
2018-12-25T21:40:01.057Z,11.2
2018-12-25T21:45:01.014Z,11.5
2018-12-25T21:50:00.889Z,10.9
2018-12-25T21:55:00.954Z,10.7
2018-12-25T22:00:01.020Z,10.5
2018-12-25T22:05:05.996Z,10.4
2018-12-25T22:10:00.894Z,9.6
2018-12-25T22:15:01.152Z,9.0
2018-12-25T22:20:00.897Z,8.8
2018-12-25T22:25:01.027Z,8.2
2018-12-25T22:30:01.318Z,8.0
2018-12-25T22:35:01.191Z,8.1
2018-12-25T22:40:00.900Z,8.1
2018-12-25T22:45:00.939Z,7.7
2018-12-25T22:50:00.909Z,7.5
2018-12-25T22:55:00.982Z,7.1
2018-12-25T23:00:01.470Z,6.9
2018-12-25T23:05:00.941Z,7.0
2018-12-25T23:10:00.942Z,7.9
2018-12-25T23:15:01.014Z,7.9
2018-12-25T23:20:05.927Z,7.3
2018-12-25T23:25:01.018Z,7.2
2018-12-25T23:30:00.960Z,6.7
2018-12-25T23:35:01.019Z,6.2
2018-12-25T23:40:00.949Z,6.9
2018-12-25T23:45:03.145Z,7.1
2018-12-25T23:50:05.923Z,7.2
2018-12-25T23:55:01.020Z,8.8
